createdAt,value
2019-04-23T00:00:03.418Z,5.10
2019-04-23T00:02:44.417Z,5.60
2019-04-23T00:04:55.577Z,5.37
2019-04-23T00:07:35.723Z,5.08
2019-04-23T00:10:01.273Z,5.50
2019-04-23T00:12:36.087Z,5.70
2019-04-23T00:17:22.660Z,5.00
2019-04-23T00:19:47.285Z,4.97
2019-04-23T00:22:20.668Z,5.87
2019-04-23T00:25:19.095Z,5.50
2019-04-23T00:27:24.043Z,5.17
2019-04-23T00:29:48.368Z,4.97
2019-04-23T00:32:18.418Z,5.17
2019-04-23T00:34:42.492Z,5.33
2019-04-23T00:37:12.459Z,5.47
2019-04-23T00:39:41.044Z,5.10
2019-04-23T00:42:10.472Z,5.57
2019-04-23T00:44:45.930Z,5.28
2019-04-23T00:47:14.302Z,4.80
2019-04-23T00:49:46.305Z,5.40
2019-04-23T00:52:17.173Z,5.17
2019-04-23T00:54:46.840Z,4.70
2019-04-23T01:02:16.547Z,4.93
2019-04-23T01:04:41.814Z,4.97
2019-04-23T01:07:04.442Z,5.63
2019-04-23T01:09:42.225Z,5.27
2019-04-23T01:11:59.300Z,5.50
2019-04-23T01:14:27.468Z,5.93
2019-04-23T01:17:08.581Z,6.07
2019-04-23T01:21:39.137Z,5.67
2019-04-23T01:24:13.945Z,5.70
2019-04-23T01:27:16.753Z,4.90
2019-04-23T01:29:36.962Z,4.77
2019-04-23T01:32:02.804Z,6.10
2019-04-23T01:34:31.915Z,5.20
2019-04-23T01:36:56.377Z,5.00
2019-04-23T01:39:32.777Z,4.87
2019-04-23T01:42:04.016Z,4.60
2019-04-23T01:44:36.804Z,5.20
2019-04-23T01:47:00.815Z,5.67
2019-04-23T01:52:04.680Z,4.80
2019-04-23T01:54:30.374Z,4.93
2019-04-23T01:57:03.703Z,5.07
2019-04-23T02:01:58.373Z,5.27
2019-04-23T02:07:00.885Z,5.07
2019-04-23T02:09:36.472Z,5.03
2019-04-23T02:11:57.223Z,5.20
2019-04-23T02:14:29.659Z,4.65
2019-04-23T02:16:57.423Z,4.70
2019-04-23T02:19:25.437Z,5.10
2019-04-23T02:24:27.774Z,5.00
2019-04-23T02:26:48.577Z,5.37
2019-04-23T02:29:36.359Z,5.22
2019-04-23T02:34:52.253Z,5.80
2019-04-23T02:37:35.269Z,6.60
2019-04-23T02:39:29.189Z,5.22
2019-04-23T02:46:59.356Z,6.47
2019-04-23T02:49:40.611Z,5.90
2019-04-23T02:52:02.910Z,6.33
2019-04-23T02:54:46.508Z,5.80
2019-04-23T02:59:42.287Z,5.93
2019-04-23T03:02:05.792Z,5.57
2019-04-23T03:07:01.211Z,5.83
2019-04-23T03:09:43.505Z,5.93
2019-04-23T03:12:02.638Z,5.47
2019-04-23T03:14:35.676Z,6.07
2019-04-23T03:16:56.346Z,5.37
2019-04-23T03:22:01.596Z,5.57
2019-04-23T03:24:45.827Z,5.00
2019-04-23T03:29:31.683Z,5.63
2019-04-23T03:39:37.396Z,6.10
2019-04-23T03:41:54.421Z,5.60
2019-04-23T03:44:29.923Z,6.43
2019-04-23T03:46:52.883Z,6.17
2019-04-23T03:49:19.469Z,5.83
2019-04-23T03:51:58.250Z,6.13
2019-04-23T03:57:12.566Z,5.77
2019-04-23T03:59:34.919Z,6.40
2019-04-23T04:09:26.001Z,6.57
2019-04-23T04:11:43.204Z,6.20
2019-04-23T04:14:21.107Z,6.93
2019-04-23T04:19:16.564Z,6.80
2019-04-23T04:21:40.866Z,7.17
2019-04-23T04:26:49.150Z,7.70
2019-04-23T04:31:42.891Z,7.43
2019-04-23T04:36:45.910Z,7.17
2019-04-23T04:38:59.034Z,6.87
2019-04-23T04:41:36.300Z,7.10
2019-04-23T04:49:05.528Z,7.97
2019-04-23T04:54:01.086Z,7.40
2019-04-23T04:56:29.145Z,7.23
2019-04-23T04:59:08.876Z,7.42
2019-04-23T05:03:45.893Z,7.72
2019-04-23T05:11:28.653Z,8.80
2019-04-23T05:14:02.275Z,10.00
2019-04-23T05:16:27.440Z,8.87
2019-04-23T05:18:56.793Z,8.13
2019-04-23T05:21:26.919Z,10.87
2019-04-23T05:26:27.020Z,8.73
2019-04-23T05:29:04.849Z,8.87
2019-04-23T05:31:27.905Z,8.40
2019-04-23T05:36:29.285Z,8.70
2019-04-23T05:43:57.274Z,9.93
2019-04-23T05:46:28.031Z,9.13
2019-04-23T05:48:52.603Z,8.27
2019-04-23T05:51:29.059Z,8.00
2019-04-23T05:53:50.951Z,7.77
2019-04-23T05:56:38.584Z,7.90
2019-04-23T05:58:58.252Z,9.00
2019-04-23T06:01:47.795Z,9.30
2019-04-23T06:03:58.252Z,8.53
2019-04-23T06:06:36.126Z,9.53
2019-04-23T06:08:53.156Z,9.55
2019-04-23T06:11:30.729Z,8.90
2019-04-23T06:14:02.196Z,9.50
2019-04-23T06:16:24.866Z,10.17
2019-04-23T06:18:57.585Z,10.15
2019-04-23T06:21:26.730Z,10.27
2019-04-23T06:23:55.676Z,9.57
2019-04-23T06:26:32.948Z,10.93
2019-04-23T06:28:59.398Z,11.90
2019-04-23T06:31:32.541Z,9.37
2019-04-23T06:34:10.849Z,9.30
2019-04-23T06:36:32.316Z,12.03
2019-04-23T06:38:56.472Z,12.47
2019-04-23T06:41:30.900Z,12.30
2019-04-23T06:44:09.314Z,14.20
2019-04-23T06:46:30.656Z,18.13
2019-04-23T06:48:57.421Z,11.20
2019-04-23T06:51:29.221Z,10.83
2019-04-23T06:53:43.153Z,10.40
2019-04-23T06:56:19.124Z,11.07
2019-04-23T06:58:43.343Z,11.50
2019-04-23T07:01:13.274Z,10.70
2019-04-23T07:03:43.285Z,10.65
2019-04-23T07:11:16.686Z,12.00
2019-04-23T07:13:46.563Z,12.37
2019-04-23T07:16:04.594Z,12.78
2019-04-23T07:18:35.882Z,11.53
2019-04-23T07:21:10.587Z,11.60
2019-04-23T07:23:46.815Z,12.67
2019-04-23T07:26:15.500Z,13.67
2019-04-23T07:28:40.059Z,11.67
2019-04-23T07:31:12.092Z,12.10
2019-04-23T07:33:39.790Z,13.50
2019-04-23T07:36:03.133Z,12.47
2019-04-23T07:38:40.874Z,14.10
2019-04-23T07:41:07.827Z,11.63
2019-04-23T07:43:32.298Z,13.07
2019-04-23T07:46:06.411Z,12.37
2019-04-23T07:55:58.607Z,15.50
2019-04-23T08:03:22.726Z,12.20
2019-04-23T08:05:44.105Z,13.87
2019-04-23T08:08:12.136Z,13.27
2019-04-23T08:11:11.004Z,15.70
2019-04-23T08:13:15.500Z,15.43
2019-04-23T08:16:02.796Z,16.00
2019-04-23T08:18:15.848Z,15.50
2019-04-23T08:20:44.648Z,15.70
2019-04-23T08:23:12.606Z,16.03
2019-04-23T08:25:45.553Z,15.23
2019-04-23T08:28:10.214Z,17.80
2019-04-23T08:30:32.651Z,18.47
2019-04-23T08:33:07.359Z,21.20
2019-04-23T08:35:33.954Z,16.27
2019-04-23T08:38:09.517Z,16.03
2019-04-23T08:40:27.659Z,18.23
2019-04-23T08:43:03.527Z,16.07
2019-04-23T08:45:35.405Z,25.90
2019-04-23T08:48:23.027Z,19.33
2019-04-23T08:50:46.592Z,20.07
2019-04-23T08:56:07.625Z,19.75
2019-04-23T09:05:58.015Z,21.57
2019-04-23T09:08:28.147Z,19.77
2019-04-23T09:18:26.330Z,20.77
2019-04-23T09:20:55.167Z,19.50
2019-04-23T09:25:57.828Z,21.43
2019-04-23T09:28:39.911Z,21.53
2019-04-23T09:31:15.873Z,20.40
2019-04-23T09:33:41.319Z,28.90
2019-04-23T09:36:06.487Z,18.67
2019-04-23T09:38:34.879Z,18.20
2019-04-23T09:41:38.084Z,18.07
2019-04-23T09:43:38.468Z,19.83
2019-04-23T09:46:15.086Z,17.70
2019-04-23T09:48:44.279Z,17.17
2019-04-23T09:51:14.863Z,17.30
2019-04-23T09:53:34.249Z,18.00
2019-04-23T09:56:28.562Z,18.37
2019-04-23T09:58:51.827Z,20.33
2019-04-23T10:01:39.365Z,17.60
2019-04-23T10:03:47.563Z,18.30
2019-04-23T10:06:12.651Z,21.00
2019-04-23T10:08:36.424Z,19.10
2019-04-23T10:11:11.251Z,20.00
2019-04-23T10:13:36.415Z,21.95
2019-04-23T10:16:10.279Z,19.83
2019-04-23T10:18:39.293Z,19.50
2019-04-23T10:21:11.083Z,18.37
2019-04-23T10:23:47.532Z,18.27
2019-04-23T10:26:17.829Z,18.30
2019-04-23T10:28:45.615Z,17.37
2019-04-23T10:31:16.777Z,19.13
2019-04-23T10:33:44.011Z,19.93
2019-04-23T10:36:17.495Z,20.33
2019-04-23T10:38:51.539Z,20.77
2019-04-23T10:41:16.164Z,22.70
2019-04-23T10:43:46.450Z,21.53
2019-04-23T10:46:36.371Z,21.17
2019-04-23T10:49:31.607Z,24.10
2019-04-23T10:51:53.478Z,23.33
2019-04-23T10:54:32.895Z,24.27
2019-04-23T10:59:19.389Z,22.57
2019-04-23T11:02:02.581Z,23.50
2019-04-23T11:04:36.016Z,20.47
2019-04-23T11:06:47.292Z,21.03
2019-04-23T11:09:36.555Z,18.70
2019-04-23T11:11:52.595Z,19.84
2019-04-23T11:14:25.270Z,19.90
2019-04-23T11:16:59.833Z,22.97
2019-04-23T11:19:27.701Z,23.40
2019-04-23T11:22:10.180Z,21.13
2019-04-23T11:26:55.850Z,19.23
2019-04-23T11:29:27.622Z,21.07
2019-04-23T11:32:31.330Z,24.03
2019-04-23T11:38:32.624Z,20.57
2019-04-23T11:39:30.985Z,24.37
2019-04-23T11:42:14.229Z,25.57
2019-04-23T11:44:36.518Z,22.33
2019-04-23T11:49:44.987Z,19.90
2019-04-23T11:52:01.688Z,24.47
2019-04-23T11:54:56.157Z,25.33
2019-04-23T12:00:05.544Z,25.92
2019-04-23T12:02:44.783Z,23.67
2019-04-23T12:05:20.700Z,25.47
2019-04-23T12:07:37.542Z,26.07
2019-04-23T12:12:44.758Z,27.07
2019-04-23T12:15:30.441Z,27.82
2019-04-23T12:17:47.373Z,25.93
2019-04-23T12:25:19.788Z,24.70
2019-04-23T12:30:14.743Z,21.65
2019-04-23T12:35:18.671Z,29.27
2019-04-23T12:40:15.377Z,23.65
2019-04-23T12:45:21.756Z,25.90
2019-04-23T12:47:53.574Z,26.90
2019-04-23T12:57:50.674Z,24.57
2019-04-23T13:00:29.574Z,30.47
2019-04-23T13:03:14.301Z,24.27
2019-04-23T13:05:27.052Z,26.00
2019-04-23T13:08:15.795Z,25.47
2019-04-23T13:15:34.568Z,26.47
2019-04-23T13:18:20.319Z,23.27
2019-04-23T13:20:33.582Z,25.07
2019-04-23T13:23:15.199Z,27.30
2019-04-23T13:25:39.936Z,24.03
2019-04-23T13:28:19.703Z,25.70
2019-04-23T13:38:15.859Z,24.60
2019-04-23T13:40:46.490Z,24.20
2019-04-23T13:43:27.997Z,25.30
2019-04-23T13:45:59.210Z,26.50
2019-04-23T13:48:17.993Z,24.77
2019-04-23T13:55:52.946Z,27.97
2019-04-23T13:58:23.511Z,25.13
2019-04-23T14:01:01.040Z,24.20
2019-04-23T14:03:32.224Z,26.67
2019-04-23T14:05:59.547Z,24.90
2019-04-23T14:08:33.059Z,25.00
2019-04-23T14:16:04.482Z,28.97
2019-04-23T14:20:55.362Z,23.30
2019-04-23T14:23:37.659Z,22.90
2019-04-23T14:28:37.379Z,24.63
2019-04-23T14:33:46.824Z,24.18
2019-04-23T14:36:00.183Z,21.80
2019-04-23T14:38:40.346Z,22.60
2019-04-23T14:41:12.471Z,20.50
2019-04-23T14:43:31.386Z,19.90
2019-04-23T14:46:27.029Z,21.35
2019-04-23T14:49:01.296Z,20.63
2019-04-23T14:51:32.299Z,21.80
2019-04-23T14:54:08.670Z,21.57
2019-04-23T14:56:39.075Z,20.63
2019-04-23T14:59:06.792Z,19.03
2019-04-23T15:01:58.251Z,19.93
2019-04-23T15:04:05.638Z,20.60
2019-04-23T15:06:43.686Z,18.40
2019-04-23T15:09:22.406Z,21.80
2019-04-23T15:11:48.875Z,19.30
2019-04-23T15:14:17.794Z,18.67
2019-04-23T15:19:36.563Z,19.92
2019-04-23T15:22:03.282Z,23.10
2019-04-23T15:24:30.366Z,20.20
2019-04-23T15:27:56.473Z,21.30
2019-04-23T15:28:57.123Z,21.77
2019-04-23T15:36:58.136Z,18.27
2019-04-23T15:42:12.570Z,19.33
2019-04-23T15:44:13.238Z,17.27
2019-04-23T15:49:17.840Z,19.67
2019-04-23T15:51:48.811Z,17.60
2019-04-23T15:54:13.812Z,18.00
2019-04-23T15:59:20.993Z,17.32
2019-04-23T16:01:37.706Z,16.80
2019-04-23T16:03:49.275Z,15.97
2019-04-23T16:06:22.050Z,18.10
2019-04-23T16:14:28.706Z,14.07
2019-04-23T16:19:24.104Z,16.10
2019-04-23T16:24:22.160Z,16.40
2019-04-23T16:26:51.011Z,15.90
2019-04-23T16:29:26.029Z,16.40
2019-04-23T16:32:00.132Z,17.17
2019-04-23T16:34:13.893Z,18.30
2019-04-23T16:36:41.361Z,18.57
2019-04-23T16:39:09.096Z,21.37
2019-04-23T16:41:30.867Z,17.03
2019-04-23T16:44:06.275Z,20.27
2019-04-23T16:46:54.156Z,19.73
2019-04-23T16:49:09.034Z,18.20
2019-04-23T16:51:27.885Z,24.23
2019-04-23T16:54:03.045Z,19.10
2019-04-23T16:56:26.054Z,20.53
2019-04-23T16:59:02.063Z,18.80
2019-04-23T17:01:20.937Z,19.53
2019-04-23T17:04:11.783Z,18.50
2019-04-23T17:06:18.630Z,18.87
2019-04-23T17:13:44.706Z,24.20
2019-04-23T17:16:18.224Z,19.40
2019-04-23T17:18:41.839Z,18.30
2019-04-23T17:21:24.182Z,23.87
2019-04-23T17:28:41.086Z,27.17
2019-04-23T17:31:22.237Z,18.87
2019-04-23T17:33:35.352Z,19.30
2019-04-23T17:36:16.694Z,21.27
2019-04-23T17:38:33.666Z,18.27
2019-04-23T17:41:01.187Z,20.20
2019-04-23T17:43:26.470Z,21.57
2019-04-23T17:45:57.006Z,20.30
2019-04-23T17:48:21.963Z,22.47
2019-04-23T17:50:56.728Z,20.90
2019-04-23T17:58:24.912Z,23.18
2019-04-23T18:00:51.891Z,21.47
2019-04-23T18:03:20.043Z,19.43
2019-04-23T18:05:52.340Z,19.93
2019-04-23T18:08:15.533Z,18.33
2019-04-23T18:10:49.623Z,19.57
2019-04-23T18:13:04.427Z,20.33
2019-04-23T18:15:38.097Z,23.90
2019-04-23T18:20:39.792Z,18.73
2019-04-23T18:23:06.670Z,23.20
2019-04-23T18:25:32.346Z,24.57
2019-04-23T18:28:01.688Z,22.50
2019-04-23T18:30:26.202Z,24.27
2019-04-23T18:35:27.961Z,22.33
2019-04-23T18:40:27.436Z,21.43
2019-04-23T18:42:57.682Z,32.50
2019-04-23T18:45:22.883Z,26.57
2019-04-23T18:47:52.022Z,28.07
2019-04-23T18:50:24.681Z,22.97
2019-04-23T18:52:55.885Z,26.07
2019-04-23T18:55:24.365Z,29.67
2019-04-23T18:57:45.772Z,24.30
2019-04-23T19:00:21.975Z,26.33
2019-04-23T19:02:52.274Z,31.53
2019-04-23T19:05:30.883Z,37.45
2019-04-23T19:07:51.679Z,24.12
2019-04-23T19:10:29.265Z,35.37
2019-04-23T19:12:44.390Z,24.70
2019-04-23T19:20:21.378Z,30.83
2019-04-23T19:22:46.574Z,30.45
2019-04-23T19:27:38.883Z,32.57
2019-04-23T19:30:05.373Z,31.33
2019-04-23T19:32:42.728Z,31.33
2019-04-23T19:35:07.070Z,31.67
2019-04-23T19:37:43.632Z,30.53
2019-04-23T19:40:00.984Z,34.00
2019-04-23T19:42:36.770Z,35.05
2019-04-23T19:44:53.821Z,31.13
2019-04-23T19:47:37.517Z,31.00
2019-04-23T19:50:02.173Z,32.23
2019-04-23T19:52:36.599Z,34.75
2019-04-23T19:55:07.852Z,25.00
2019-04-23T20:12:25.911Z,25.93
2019-04-23T20:14:52.030Z,28.33
2019-04-23T20:22:29.118Z,31.37
2019-04-23T20:34:51.507Z,31.40
2019-04-23T20:37:31.250Z,32.67
2019-04-23T20:39:45.422Z,38.10
2019-04-23T20:42:18.199Z,33.67
2019-04-23T20:47:15.829Z,30.63
2019-04-23T20:49:48.947Z,33.00
2019-04-23T20:52:28.947Z,32.67
2019-04-23T20:59:57.226Z,31.45
2019-04-23T21:02:41.593Z,28.67
2019-04-23T21:05:03.525Z,30.02
2019-04-23T21:07:42.965Z,31.07
2019-04-23T21:10:08.916Z,30.23
2019-04-23T21:12:43.207Z,30.37
2019-04-23T21:15:08.760Z,29.67
2019-04-23T21:17:40.222Z,29.47
2019-04-23T21:20:08.507Z,29.12
2019-04-23T21:22:51.879Z,31.60
2019-04-23T21:24:51.265Z,27.73
2019-04-23T21:30:00.609Z,29.63
2019-04-23T21:32:35.290Z,31.60
2019-04-23T21:35:05.296Z,32.13
2019-04-23T21:37:37.377Z,35.07
2019-04-23T21:40:32.551Z,33.60
2019-04-23T21:42:35.649Z,34.40
2019-04-23T21:44:53.943Z,33.38
2019-04-23T21:47:15.296Z,31.70
2019-04-23T21:50:03.264Z,33.53
2019-04-23T21:52:28.626Z,32.87
2019-04-23T21:57:42.068Z,28.23
2019-04-23T22:02:36.426Z,34.55
2019-04-23T22:05:16.844Z,31.20
2019-04-23T22:07:38.869Z,33.03
2019-04-23T22:12:33.508Z,30.52
2019-04-23T22:14:55.365Z,31.50
2019-04-23T22:17:32.642Z,33.80
2019-04-23T22:22:45.496Z,34.97
2019-04-23T22:24:59.269Z,37.27
2019-04-23T22:27:24.309Z,33.63
2019-04-23T22:29:51.322Z,37.30
2019-04-23T22:32:34.319Z,33.97
2019-04-23T22:34:55.983Z,42.07
2019-04-23T22:37:23.813Z,39.60
2019-04-23T22:39:54.149Z,38.38
2019-04-23T22:47:13.591Z,35.00
2019-04-23T22:50:04.342Z,36.73
2019-04-23T22:52:23.094Z,34.23
2019-04-23T22:55:02.197Z,34.80
2019-04-23T22:57:17.324Z,34.27
2019-04-23T23:00:03.112Z,34.70
2019-04-23T23:02:25.513Z,31.40
2019-04-23T23:05:07.271Z,30.25
2019-04-23T23:07:28.266Z,35.97
2019-04-23T23:10:00.854Z,34.97
2019-04-23T23:12:33.497Z,34.73
2019-04-23T23:15:06.899Z,31.40
2019-04-23T23:17:30.587Z,30.77
2019-04-23T23:20:12.246Z,34.47
2019-04-23T23:22:27.290Z,30.27
2019-04-23T23:25:06.636Z,35.07
2019-04-23T23:27:32.376Z,33.03
2019-04-23T23:30:05.236Z,33.60
2019-04-23T23:35:08.243Z,31.43
2019-04-23T23:37:24.569Z,29.77
2019-04-23T23:40:02.398Z,30.63
2019-04-23T23:44:56.175Z,30.87
2019-04-23T23:47:29.777Z,39.60
2019-04-23T23:49:59.043Z,32.13
2019-04-23T23:52:12.959Z,33.23
2019-04-23T23:54:45.344Z,29.40
2019-04-23T23:59:57.432Z,31.53
